Terminal Aerodrome Forecast
Issued by NWS St Louis, MO

Home | Current Version | Previous Version | Text Only | Print | Product List | Glossary On
Versions: 1 2 3 4 5 6 7 8 9 10 11 12 13 14 15 16
175
FTUS43 KLSX 182108 AAA
TAFCOU
TAF AMD
KCOU 182108Z 1821/1918 29023G33KT P6SM OVC030
     FM190000 30017G26KT P6SM OVC025
     FM190600 32012G20KT P6SM BKN020
     FM191600 35008KT P6SM SCT060=

USA.gov is the U.S. government's official web portal to all federal, state and local government web resources and services.